KHSP/HSP METAR and TAF weather

Enter ICAO airport designator
Station Type Date Time Source
KHSP METAR 2023/01/30 11:15 UTC NOAA

KHSP 301115Z AUTO 27008KT M1/4SM FG OVC001 05/05 A3012 RMK AO2 T00510051


Station Type Date Time Source
KHSP Decoded METAR 2023/01/30 11:15 UTC NOAA

Hot Springs / Ingalls, VA, United States (KHSP) 37-57N 079-50W
Jan 30, 2023 - 06:15 AM EST / 2023.01.30 1115 UTC
Wind: from the W (270 degrees) at 9 MPH (8 KT):0
Visibility: less than 1/4 mile(s):1
Sky conditions: overcast
Weather: fog
Temperature: 41.2 F (5.1 C)
Dew Point: 41.2 F (5.1 C)
Relative Humidity: 100%
Pressure (altimeter): 30.12 in. Hg (1019 hPa)
ob: KHSP 301115Z AUTO 27008KT M1/4SM FG OVC001 05/05 A3012 RMK AO2 T00510051
cycle: 11

Station Type Date Time Source
KHSP TAF UTC NOAA

Error!

Example: see airport list